createdAt,value
2022-10-28T00:01:29.115Z,8.34
2022-10-28T00:04:01.503Z,8.32
2022-10-28T00:06:33.876Z,8.30
2022-10-28T00:09:05.607Z,8.28
2022-10-28T00:11:36.623Z,8.27
2022-10-28T00:14:08.079Z,8.25
2022-10-28T00:16:38.238Z,8.22
2022-10-28T00:19:08.660Z,8.19
2022-10-28T00:21:39.348Z,8.15
2022-10-28T00:24:09.617Z,8.13
2022-10-28T00:26:42.396Z,8.11
2022-10-28T00:29:14.119Z,8.10
2022-10-28T00:31:43.570Z,8.11
2022-10-28T00:34:18.518Z,8.10
2022-10-28T00:36:47.970Z,8.09
2022-10-28T00:39:19.526Z,8.09
2022-10-28T00:41:57.090Z,8.10
2022-10-28T00:45:00.711Z,8.09
2022-10-28T00:47:52.746Z,8.09
2022-10-28T00:50:40.929Z,8.08
2022-10-28T00:53:26.268Z,8.06
2022-10-28T00:55:56.590Z,8.06
2022-10-28T00:58:26.894Z,8.06
2022-10-28T01:00:56.112Z,8.07
2022-10-28T01:03:24.393Z,8.09
2022-10-28T01:05:53.503Z,8.09
2022-10-28T01:08:21.785Z,8.07
2022-10-28T01:10:59.002Z,8.05
2022-10-28T01:13:39.429Z,8.02
2022-10-28T01:16:16.534Z,8.00
2022-10-28T01:19:28.489Z,7.97
2022-10-28T01:22:12.064Z,7.97
2022-10-28T01:25:14.688Z,7.96
2022-10-28T01:27:54.907Z,7.95
2022-10-28T01:30:29.511Z,7.95
2022-10-28T01:33:10.277Z,7.94
2022-10-28T01:35:52.724Z,7.93
2022-10-28T01:38:36.302Z,7.92
2022-10-28T01:41:07.544Z,7.90
2022-10-28T01:43:42.117Z,7.88
2022-10-28T01:46:36.682Z,7.87
2022-10-28T01:49:14.108Z,7.84
2022-10-28T01:51:46.958Z,7.83
2022-10-28T01:54:19.961Z,7.82
2022-10-28T01:56:49.663Z,7.79
2022-10-28T01:59:22.396Z,7.78
2022-10-28T02:01:51.191Z,7.77
2022-10-28T02:04:19.553Z,7.74
2022-10-28T02:06:55.001Z,7.72
2022-10-28T02:09:47.840Z,7.69
2022-10-28T02:12:21.624Z,7.63
2022-10-28T02:15:27.439Z,7.59
2022-10-28T02:17:56.808Z,7.55
2022-10-28T02:20:31.186Z,7.54
2022-10-28T02:23:10.835Z,7.53
2022-10-28T02:25:46.903Z,7.51
2022-10-28T02:28:40.875Z,7.49
2022-10-28T02:31:34.658Z,7.46
2022-10-28T02:34:29.052Z,7.44
2022-10-28T02:37:02.664Z,7.43
2022-10-28T02:39:37.262Z,7.41
2022-10-28T02:42:25.819Z,7.35
2022-10-28T02:45:05.222Z,7.32
2022-10-28T02:47:37.970Z,7.29
2022-10-28T02:50:14.012Z,7.26
2022-10-28T02:52:44.738Z,7.22
2022-10-28T02:55:13.046Z,7.18
2022-10-28T02:57:45.088Z,7.13
2022-10-28T03:00:17.779Z,7.07
2022-10-28T03:02:46.891Z,7.04
2022-10-28T03:05:15.265Z,7.02
2022-10-28T03:07:43.671Z,6.99
2022-10-28T03:10:11.997Z,6.97
2022-10-28T03:12:40.252Z,6.95
2022-10-28T03:15:09.046Z,6.96
2022-10-28T03:17:37.296Z,6.95
2022-10-28T03:20:06.412Z,6.95
2022-10-28T03:22:34.714Z,6.95
2022-10-28T03:25:03.030Z,6.93
2022-10-28T03:27:31.374Z,6.92
2022-10-28T03:29:59.616Z,6.87
2022-10-28T03:32:27.979Z,6.85
2022-10-28T03:34:56.240Z,6.83
2022-10-28T03:37:25.017Z,6.80
2022-10-28T03:39:53.496Z,6.77
2022-10-28T03:42:21.806Z,6.75
2022-10-28T03:44:50.057Z,6.73
2022-10-28T03:47:18.270Z,6.72
2022-10-28T03:49:46.512Z,6.72
2022-10-28T03:52:14.750Z,6.72
2022-10-28T03:54:43.036Z,6.72
2022-10-28T03:57:11.312Z,6.70
2022-10-28T03:59:39.563Z,6.69
2022-10-28T04:02:07.870Z,6.68
2022-10-28T04:04:36.953Z,6.67
2022-10-28T04:07:05.200Z,6.63
2022-10-28T04:09:33.751Z,6.62
2022-10-28T04:12:02.051Z,6.63
2022-10-28T04:14:30.343Z,6.62
2022-10-28T04:16:58.991Z,6.60
2022-10-28T04:19:27.264Z,6.58
2022-10-28T04:21:55.518Z,6.56
2022-10-28T04:24:23.852Z,6.54
2022-10-28T04:26:52.177Z,6.52
2022-10-28T04:29:20.492Z,6.51
2022-10-28T04:31:51.417Z,6.48
2022-10-28T04:34:20.755Z,6.48
2022-10-28T04:36:48.983Z,6.47
2022-10-28T04:39:17.387Z,6.46
2022-10-28T04:41:45.702Z,6.46
2022-10-28T04:44:14.636Z,6.45
2022-10-28T04:46:42.950Z,6.45
2022-10-28T04:49:11.536Z,6.43
2022-10-28T04:51:39.862Z,6.43
2022-10-28T04:54:08.254Z,6.43
2022-10-28T04:56:36.480Z,6.46
2022-10-28T04:59:05.038Z,6.45
2022-10-28T05:01:33.473Z,6.45
2022-10-28T05:04:02.066Z,6.44
2022-10-28T05:06:30.372Z,6.41
2022-10-28T05:08:58.624Z,6.40
2022-10-28T05:11:26.980Z,6.39
2022-10-28T05:13:55.207Z,6.37
2022-10-28T05:16:23.549Z,6.38
2022-10-28T05:18:51.885Z,6.37
2022-10-28T05:21:20.244Z,6.36
2022-10-28T05:23:48.498Z,6.37
2022-10-28T05:26:16.829Z,6.37
2022-10-28T05:28:49.710Z,6.37
2022-10-28T05:31:18.682Z,6.36
2022-10-28T05:33:46.987Z,6.39
2022-10-28T05:36:15.372Z,6.39
2022-10-28T05:38:45.638Z,6.42
2022-10-28T05:41:13.908Z,6.48
2022-10-28T05:43:42.241Z,6.61
2022-10-28T05:46:10.621Z,6.74
2022-10-28T05:48:38.925Z,6.87
2022-10-28T05:51:07.250Z,7.01
2022-10-28T05:53:35.615Z,7.15
2022-10-28T05:56:04.065Z,7.31
2022-10-28T05:58:32.825Z,7.50
2022-10-28T06:01:01.101Z,7.69
2022-10-28T06:03:31.199Z,7.87
2022-10-28T06:06:00.054Z,8.06
2022-10-28T06:08:28.849Z,8.26
2022-10-28T06:10:55.611Z,8.49
2022-10-28T06:13:23.938Z,8.69
2022-10-28T06:15:54.587Z,8.86
2022-10-28T06:18:23.730Z,9.05
2022-10-28T06:20:53.709Z,9.23
2022-10-28T06:23:23.847Z,9.48
2022-10-28T06:26:01.270Z,9.72
2022-10-28T06:28:30.805Z,9.99
2022-10-28T06:31:03.887Z,10.26
2022-10-28T06:33:32.634Z,10.52
2022-10-28T06:36:00.962Z,10.77
2022-10-28T06:38:30.179Z,11.01
2022-10-28T06:40:58.602Z,11.24
2022-10-28T06:43:27.155Z,11.47
2022-10-28T06:45:59.362Z,11.69
2022-10-28T06:48:29.231Z,11.92
2022-10-28T06:50:58.606Z,12.15
2022-10-28T06:53:27.173Z,12.37
2022-10-28T06:55:57.218Z,12.59
2022-10-28T06:58:26.447Z,12.73
2022-10-28T07:00:56.883Z,12.77
2022-10-28T07:03:23.917Z,12.86
2022-10-28T07:05:55.445Z,13.03
2022-10-28T07:08:23.738Z,13.00
2022-10-28T07:10:59.994Z,12.91
2022-10-28T07:13:29.160Z,12.85
2022-10-28T07:16:00.824Z,12.84
2022-10-28T07:18:29.819Z,12.79
2022-10-28T07:21:00.214Z,12.92
2022-10-28T07:23:29.356Z,13.04
2022-10-28T07:25:57.708Z,13.08
2022-10-28T07:28:27.178Z,13.09
2022-10-28T07:30:56.282Z,13.17
2022-10-28T07:33:24.849Z,13.40
2022-10-28T07:35:53.182Z,13.64
2022-10-28T07:38:21.599Z,13.82
2022-10-28T07:40:49.842Z,14.13
2022-10-28T07:43:18.109Z,14.28
2022-10-28T07:45:46.379Z,14.31
2022-10-28T07:48:15.119Z,14.31
2022-10-28T07:50:43.411Z,14.45
2022-10-28T07:53:11.674Z,14.54
2022-10-28T07:55:39.992Z,14.62
2022-10-28T07:58:08.453Z,14.71
2022-10-28T08:00:36.826Z,14.81
2022-10-28T08:03:05.164Z,15.03
2022-10-28T08:05:33.472Z,15.33
2022-10-28T08:08:01.749Z,15.63
2022-10-28T08:10:30.095Z,15.96
2022-10-28T08:12:59.216Z,16.35
2022-10-28T08:15:29.138Z,16.67
2022-10-28T08:17:57.597Z,16.92
2022-10-28T08:20:26.027Z,17.20
2022-10-28T08:22:54.627Z,17.51
2022-10-28T08:25:23.170Z,17.73
2022-10-28T08:27:51.448Z,17.71
2022-10-28T08:30:19.693Z,17.77
2022-10-28T08:32:47.967Z,17.75
2022-10-28T08:35:16.215Z,17.66
2022-10-28T08:37:51.509Z,17.74
2022-10-28T08:40:29.971Z,17.78
2022-10-28T08:43:34.934Z,17.82
2022-10-28T08:46:27.030Z,17.86
2022-10-28T08:48:55.665Z,17.93
2022-10-28T08:51:49.446Z,17.92
2022-10-28T08:54:24.770Z,18.01
2022-10-28T08:56:55.210Z,18.26
2022-10-28T08:59:32.628Z,18.38
2022-10-28T09:02:13.440Z,18.50
2022-10-28T09:04:47.050Z,18.61
2022-10-28T09:07:21.780Z,18.73
2022-10-28T09:09:53.099Z,18.91
2022-10-28T09:12:27.704Z,19.05
2022-10-28T09:15:27.440Z,19.16
2022-10-28T09:18:01.813Z,19.23
2022-10-28T09:20:53.304Z,19.23
2022-10-28T09:23:44.514Z,19.36
2022-10-28T09:26:12.763Z,19.31
2022-10-28T09:29:17.213Z,19.12
2022-10-28T09:32:01.495Z,18.84
2022-10-28T09:34:58.697Z,18.95
2022-10-28T09:38:01.381Z,19.09
2022-10-28T09:40:36.701Z,19.25
2022-10-28T09:43:17.320Z,19.33
2022-10-28T09:45:47.344Z,19.40
2022-10-28T09:48:37.519Z,19.48
2022-10-28T09:51:06.116Z,19.53
2022-10-28T09:53:56.408Z,19.49
2022-10-28T09:56:26.390Z,19.50
2022-10-28T09:58:58.375Z,19.60
2022-10-28T10:01:33.386Z,19.79
2022-10-28T10:04:02.753Z,19.83
2022-10-28T10:06:37.785Z,19.69
2022-10-28T10:09:06.120Z,19.65
2022-10-28T10:11:49.477Z,19.56
2022-10-28T10:14:22.399Z,19.59
2022-10-28T10:17:12.982Z,19.69
2022-10-28T10:20:00.361Z,19.74
2022-10-28T10:22:39.946Z,19.85
2022-10-28T10:25:20.586Z,19.86
2022-10-28T10:27:57.843Z,19.91
2022-10-28T10:30:30.755Z,19.81
2022-10-28T10:33:00.025Z,19.73
2022-10-28T10:35:34.303Z,19.59
2022-10-28T10:38:07.028Z,19.45
2022-10-28T10:40:40.718Z,19.47
2022-10-28T10:43:18.316Z,19.40
2022-10-28T10:46:16.015Z,19.33
2022-10-28T10:48:44.689Z,19.45
2022-10-28T10:51:22.528Z,19.61
2022-10-28T10:53:54.987Z,19.78
2022-10-28T10:56:30.091Z,19.87
2022-10-28T10:59:03.175Z,19.92
2022-10-28T11:01:39.483Z,20.07
2022-10-28T11:04:15.861Z,20.21
2022-10-28T11:06:48.644Z,20.37
2022-10-28T11:09:29.098Z,20.49
2022-10-28T11:11:57.800Z,20.50
2022-10-28T11:14:32.575Z,20.60
2022-10-28T11:17:02.757Z,20.63
2022-10-28T11:19:33.024Z,20.72
2022-10-28T11:22:27.561Z,20.97
2022-10-28T11:25:01.650Z,21.32
2022-10-28T11:27:29.920Z,21.47
2022-10-28T11:30:00.062Z,21.57
2022-10-28T11:33:16.224Z,21.67
2022-10-28T11:36:16.465Z,21.93
2022-10-28T11:39:03.462Z,22.13
2022-10-28T11:41:52.145Z,22.25
2022-10-28T11:44:46.884Z,22.30
2022-10-28T11:47:27.288Z,22.27
2022-10-28T11:50:10.977Z,22.28
2022-10-28T11:52:45.259Z,22.31
2022-10-28T11:55:23.009Z,22.45
2022-10-28T11:58:06.752Z,22.61
2022-10-28T12:00:34.988Z,22.63
2022-10-28T12:03:18.676Z,22.67
2022-10-28T12:05:56.177Z,22.65
2022-10-28T12:08:45.947Z,22.62
2022-10-28T12:11:32.406Z,22.71
2022-10-28T12:14:23.074Z,22.81
2022-10-28T12:16:58.404Z,22.91
2022-10-28T12:19:35.098Z,22.99
2022-10-28T12:22:32.912Z,23.05
2022-10-28T12:25:08.715Z,23.11
2022-10-28T12:27:42.789Z,23.02
2022-10-28T12:30:21.469Z,22.99
2022-10-28T12:33:06.858Z,22.99
2022-10-28T12:35:40.592Z,22.95
2022-10-28T12:38:11.729Z,22.87
2022-10-28T12:41:00.193Z,22.70
2022-10-28T12:43:38.596Z,22.60
2022-10-28T12:46:18.939Z,22.58
2022-10-28T12:48:50.098Z,22.52
2022-10-28T12:51:21.669Z,22.40
2022-10-28T12:54:00.748Z,22.38
2022-10-28T12:56:38.120Z,22.39
2022-10-28T12:59:35.918Z,22.44
2022-10-28T13:02:12.061Z,22.41
2022-10-28T13:04:41.400Z,22.40
2022-10-28T13:07:35.849Z,22.36
2022-10-28T13:10:24.659Z,22.34
2022-10-28T13:13:13.397Z,22.29
2022-10-28T13:16:04.169Z,22.22
2022-10-28T13:18:58.377Z,22.06
2022-10-28T13:22:01.088Z,21.99
2022-10-28T13:24:39.524Z,21.92
2022-10-28T13:27:13.882Z,21.77
2022-10-28T13:29:48.672Z,21.60
2022-10-28T13:32:38.870Z,21.37
2022-10-28T13:35:16.447Z,21.18
2022-10-28T13:37:47.809Z,20.94
2022-10-28T13:40:41.641Z,20.83
2022-10-28T13:43:41.627Z,20.70
2022-10-28T13:46:09.935Z,20.57
2022-10-28T13:48:46.228Z,20.43
2022-10-28T13:51:14.475Z,20.35
2022-10-28T13:53:45.801Z,20.33
2022-10-28T13:56:53.209Z,20.31
2022-10-28T13:59:32.892Z,20.21
2022-10-28T14:02:39.421Z,20.14
2022-10-28T14:05:11.460Z,20.11
2022-10-28T14:08:01.684Z,20.07
2022-10-28T14:10:34.292Z,20.00
2022-10-28T14:13:19.504Z,19.98
2022-10-28T14:15:49.667Z,19.98
2022-10-28T14:21:06.313Z,20.09
2022-10-28T14:23:36.619Z,20.00
2022-10-28T14:26:06.392Z,19.98
2022-10-28T14:28:35.649Z,19.96
2022-10-28T14:31:12.613Z,19.93
2022-10-28T14:33:46.648Z,19.76
2022-10-28T14:36:17.728Z,19.46
2022-10-28T14:39:19.245Z,19.27
2022-10-28T14:42:03.083Z,19.02
2022-10-28T14:44:49.978Z,18.71
2022-10-28T14:53:46.763Z,17.89
2022-10-28T14:56:31.050Z,17.62
2022-10-28T14:59:19.698Z,17.34
2022-10-28T15:02:08.735Z,17.05
2022-10-28T15:04:38.736Z,16.82
2022-10-28T15:07:18.924Z,16.59
2022-10-28T15:09:52.795Z,16.40
2022-10-28T15:12:22.196Z,16.24
2022-10-28T15:14:55.326Z,16.11
2022-10-28T15:17:25.513Z,15.97
2022-10-28T15:19:58.093Z,15.78
2022-10-28T15:22:31.649Z,15.60
2022-10-28T15:25:10.493Z,15.39
2022-10-28T15:27:39.743Z,15.17
2022-10-28T15:30:14.984Z,14.99
